Aérodrome :
LOGIN :

S'inscrire | Disclaimer

   EN    FR    IT 

 










Légende :    VFR   VFR Marginal   IFR   IFR Intensif   IFR Très Intensif
Visi : 
Plafond : 
>= 8 km
>= 3000ft
5 à 8 km
1000 à 3000 ft
1500m à 5 km
500 à 1000 ft
800 à 1500m
200 à 500 ft
< 800m
< 200 ft
Symboles :   Orages  Brouillard  Fortes neiges  Fortes précipitations  Vent > 20 kt
SIGMETs :   Divers  Orages  Givrage  Turbulence  Onde Orograph.  Cendres Volcan.






- Altitude de l'aérodrome : 3428 ft
- Code IATA : ERH


GMFK - Moulay Ali Cherif Int.

DERNIER METAR :
  • 252200Z 33007KT CAVOK 12/M05 Q1022 NOSIG

METARs EXPIRÉS :
  • 252100Z 26005KT CAVOK 12/M06 Q1022 NOSIG
  • 252000Z 28006KT 9999 FEW026 13/M06 Q1021 NOSIG

TAF TAF GMFK
Valide du 25 à 18h jusqu'au 27 à 00h UTC


251700Z 2518/2624 22004KT 9999 FEW026



MET'MAP, la Météo Aéronautique d'un coup d'oeil ! - Copyright ORBIFLY Décembre 2007 - Disclaimer

ORBIFLY MET'MAP TEAM :

Programmation & Développement : Alexandra Zaïnal
Sur une idée originale de : Baudouin d'Aumeries
Assistance à la programmation : Marc-Olivier Méhu
Soutien technique & logistique : Manuel Goepfert

Contact : metmap@orbifly.com




SOURCES & CREDITS :

   NOAA